Terminal Aerodrome Forecast
Issued by NWS Bismarck, ND

Home | Current Version | Previous Version | Graphics & Text | Print | Product List | Glossary On
Versions: 1 2 3 4 5 6 7 8 9 10 11 12 13 14 15 16 17 18 19 20 21 22 23 24
000
FTUS43 KBIS 211725
TAFISN
TAF
KISN 211725Z 2118/2218 22005KT P6SM SCT060 BKN140
     FM212000 23005KT P6SM VCSH OVC060
     FM220000 VRB03KT 5SM -RA OVC035
     FM220300 31004KT P6SM -RASN OVC015
     FM220500 33006KT 5SM -RASN BR OVC008
     FM220900 36007KT 1 1/2SM -SN OVC008
     FM221400 01009KT 3SM -SN OVC008=

USA.gov is the U.S. government's official web portal to all federal, state and local government web resources and services.